Time;durP1;ratioP1;P1;durP2;ratioP2;P2;SDS_P1;SDS_P2;PMS_P1;PMS_P2;Temp;Humidity;BMP_temperature;BMP_pressure;BME280_temperature;BME280_humidity;BME280_pressure;Samples;Min_cycle;Max_cycle;Signal;HPM_P1;HPM_P2
2022/01/23 00:00:21;;;;;;;15.50;7.78;;;;;;;;;;5005473;28;20069;-94
2022/01/23 00:02:55;;;;;;;18.58;7.03;;;;;;;;;;4995142;28;20042;-93
2022/01/23 00:05:33;;;;;;;18.25;6.85;;;;;;;;;;5001604;28;20046;-93
2022/01/23 00:08:03;;;;;;;12.88;6.10;;;;;;;;;;4999288;28;20050;-94
2022/01/23 00:10:35;;;;;;;13.75;6.60;;;;;;;;;;4983349;28;20042;-94
2022/01/23 00:13:09;;;;;;;14.90;6.78;;;;;;;;;;4981440;28;20108;-94
2022/01/23 00:18:33;;;;;;;12.45;6.05;;;;;;;;;;5016015;28;20050;-95
2022/01/23 00:21:05;;;;;;;18.15;6.43;;;;;;;;;;5004172;28;20176;-93
2022/01/23 00:30:18;;;;;;;13.70;6.15;;;;;;;;;;5006151;28;20133;-93
2022/01/23 00:31:52;;;;;;;11.95;5.57;;;;;;;;;;5003501;28;20042;-93
2022/01/23 00:34:20;;;;;;;12.15;5.30;;;;;;;;;;5006497;28;20074;-92
2022/01/23 00:36:48;;;;;;;12.00;5.05;;;;;;;;;;4999933;28;20404;-93
2022/01/23 00:39:16;;;;;;;13.63;5.75;;;;;;;;;;5007493;28;20140;-91
2022/01/23 00:41:44;;;;;;;14.10;5.30;;;;;;;;;;5005595;28;20034;-93
2022/01/23 00:44:12;;;;;;;11.30;5.20;;;;;;;;;;5019173;28;20495;-90
2022/01/23 00:46:48;;;;;;;11.48;5.22;;;;;;;;;;4990408;28;20053;-90
2022/01/23 00:49:25;;;;;;;10.05;4.70;;;;;;;;;;5003332;28;20040;-90
2022/01/23 00:51:56;;;;;;;11.35;5.28;;;;;;;;;;4992297;28;20042;-90
2022/01/23 00:54:25;;;;;;;15.23;4.95;;;;;;;;;;4986891;28;20093;-89
2022/01/23 00:56:52;;;;;;;16.98;4.90;;;;;;;;;;5001089;28;20065;-90
2022/01/23 00:59:20;;;;;;;12.73;5.03;;;;;;;;;;4998880;28;20519;-88
2022/01/23 01:01:48;;;;;;;13.85;5.32;;;;;;;;;;5001396;28;20041;-87
2022/01/23 01:04:16;;;;;;;19.08;5.53;;;;;;;;;;5003130;28;20126;-88
2022/01/23 01:06:44;;;;;;;14.20;5.78;;;;;;;;;;4996151;28;20475;-89
2022/01/23 01:09:14;;;;;;;15.77;4.82;;;;;;;;;;5002417;28;20037;-90
2022/01/23 01:12:19;;;;;;;11.75;4.90;;;;;;;;;;4990100;28;20104;-90
2022/01/23 01:30:12;;;;;;;15.38;4.65;;;;;;;;;;4984887;28;20153;-89
2022/01/23 01:31:40;;;;;;;8.88;4.05;;;;;;;;;;4961595;28;20443;-88
2022/01/23 01:34:14;;;;;;;10.43;4.88;;;;;;;;;;4951047;28;20076;-90
2022/01/23 01:36:51;;;;;;;13.25;5.03;;;;;;;;;;4947871;28;20084;-89
2022/01/23 01:39:24;;;;;;;15.20;6.53;;;;;;;;;;4949180;28;20053;-89
2022/01/23 01:41:53;;;;;;;13.48;5.72;;;;;;;;;;4962278;28;20051;-90
2022/01/23 01:44:23;;;;;;;9.30;4.45;;;;;;;;;;4968406;28;20126;-91
2022/01/23 01:46:51;;;;;;;9.55;4.32;;;;;;;;;;4962437;28;20153;-89
2022/01/23 01:49:29;;;;;;;10.27;4.35;;;;;;;;;;4931377;28;20171;-87
2022/01/23 01:52:00;;;;;;;10.40;4.25;;;;;;;;;;4960666;28;20050;-90
2022/01/23 01:54:31;;;;;;;10.98;4.85;;;;;;;;;;4939795;28;20142;-88
2022/01/23 01:57:07;;;;;;;12.32;4.97;;;;;;;;;;4931527;29;20074;-89
2022/01/23 02:00:13;;;;;;;9.95;4.28;;;;;;;;;;4960956;28;20862;-88
2022/01/23 02:10:53;;;;;;;12.00;5.28;;;;;;;;;;5003913;28;20140;-89
2022/01/23 02:13:43;;;;;;;11.80;5.20;;;;;;;;;;5001022;28;20394;-90
2022/01/23 02:50:40;;;;;;;11.40;4.90;;;;;;;;;;5001763;28;20077;-88
2022/01/23 02:55:45;;;;;;;12.80;4.82;;;;;;;;;;5041150;28;20037;-91
2022/01/23 02:58:16;;;;;;;11.07;5.22;;;;;;;;;;5011977;28;20052;-91
2022/01/23 03:00:59;;;;;;;12.85;4.45;;;;;;;;;;5019846;28;20049;-91
2022/01/23 03:03:58;;;;;;;12.10;5.05;;;;;;;;;;5009867;28;20065;-91
2022/01/23 03:07:08;;;;;;;10.30;4.43;;;;;;;;;;4978996;28;20070;-94
2022/01/23 03:12:45;;;;;;;14.70;5.43;;;;;;;;;;4958829;28;20142;-94
2022/01/23 03:15:12;;;;;;;12.13;4.53;;;;;;;;;;4946558;28;20043;-94
2022/01/23 03:29:05;;;;;;;15.65;4.95;;;;;;;;;;4963062;28;20051;-93
2022/01/23 03:31:43;;;;;;;10.63;4.57;;;;;;;;;;4959160;28;20069;-93
2022/01/23 03:34:11;;;;;;;13.10;5.50;;;;;;;;;;4964204;28;20073;-93
2022/01/23 03:36:39;;;;;;;12.82;5.10;;;;;;;;;;4947875;28;20059;-93
2022/01/23 03:39:10;;;;;;;12.93;4.78;;;;;;;;;;4944215;28;20090;-93
2022/01/23 03:41:40;;;;;;;14.57;4.70;;;;;;;;;;4960858;28;20601;-93
2022/01/23 03:44:09;;;;;;;15.80;5.40;;;;;;;;;;4991701;28;20068;-93
2022/01/23 03:49:37;;;;;;;13.07;4.82;;;;;;;;;;4987296;28;20076;-93
2022/01/23 03:52:26;;;;;;;12.48;5.13;;;;;;;;;;4999463;28;20046;-92
2022/01/23 03:54:54;;;;;;;16.48;5.57;;;;;;;;;;4979502;28;20121;-93
2022/01/23 03:57:23;;;;;;;14.45;5.18;;;;;;;;;;5013856;28;20049;-93
2022/01/23 03:59:51;;;;;;;13.85;5.47;;;;;;;;;;4980697;28;20046;-93
2022/01/23 04:02:20;;;;;;;15.73;5.47;;;;;;;;;;4984435;28;20057;-86
2022/01/23 04:04:49;;;;;;;16.05;5.20;;;;;;;;;;5000001;28;20042;-86
2022/01/23 04:07:24;;;;;;;11.05;4.43;;;;;;;;;;4988790;28;20053;-92
2022/01/23 04:09:53;;;;;;;14.82;5.55;;;;;;;;;;4993235;28;20152;-91
2022/01/23 04:12:39;;;;;;;15.05;5.18;;;;;;;;;;5002315;28;20042;-92
2022/01/23 04:45:58;;;;;;;15.05;4.57;;;;;;;;;;4965990;28;20042;-88
2022/01/23 04:48:55;;;;;;;15.82;4.93;;;;;;;;;;4949594;28;20129;-90
2022/01/23 04:59:52;;;;;;;14.23;4.28;;;;;;;;;;5001172;28;20123;-89
2022/01/23 05:05:31;;;;;;;17.90;5.25;;;;;;;;;;5012548;28;20068;-86
2022/01/23 05:08:19;;;;;;;13.00;4.78;;;;;;;;;;4991383;28;20934;-87
2022/01/23 05:11:08;;;;;;;13.80;5.20;;;;;;;;;;5014580;28;20092;-86
2022/01/23 05:13:51;;;;;;;17.67;4.60;;;;;;;;;;5001143;28;20116;-88
2022/01/23 05:16:21;;;;;;;16.17;4.60;;;;;;;;;;5007973;28;20083;-88
2022/01/23 05:18:49;;;;;;;13.25;4.82;;;;;;;;;;5000843;28;20037;-87
2022/01/23 05:24:26;;;;;;;14.75;4.82;;;;;;;;;;4997550;28;20587;-86
2022/01/23 05:27:00;;;;;;;17.08;5.65;;;;;;;;;;4978587;28;20069;-86
2022/01/23 05:29:27;;;;;;;15.25;4.55;;;;;;;;;;4980781;28;20038;-86
2022/01/23 05:31:55;;;;;;;17.10;5.82;;;;;;;;;;4999863;28;20162;-88
2022/01/23 05:34:24;;;;;;;14.48;4.90;;;;;;;;;;4954935;28;20058;-85
2022/01/23 05:36:57;;;;;;;18.17;4.78;;;;;;;;;;4936271;28;20050;-86
2022/01/23 05:39:27;;;;;;;15.55;4.90;;;;;;;;;;4941016;28;20603;-89
2022/01/23 05:42:05;;;;;;;17.52;4.80;;;;;;;;;;4944494;28;20053;-90
2022/01/23 05:44:37;;;;;;;17.40;5.20;;;;;;;;;;4944909;28;20051;-89
2022/01/23 05:47:07;;;;;;;12.82;5.10;;;;;;;;;;4934544;28;20394;-91
2022/01/23 05:49:51;;;;;;;18.50;5.30;;;;;;;;;;4941246;28;20073;-89
2022/01/23 05:52:39;;;;;;;15.02;5.18;;;;;;;;;;4945039;28;20078;-90
2022/01/23 05:55:29;;;;;;;14.57;5.18;;;;;;;;;;4946581;28;20063;-90
2022/01/23 05:58:15;;;;;;;14.30;5.25;;;;;;;;;;4943711;28;21885;-88
2022/01/23 06:00:47;;;;;;;13.10;5.47;;;;;;;;;;4938791;29;20059;-88
2022/01/23 06:03:21;;;;;;;13.98;4.75;;;;;;;;;;4927519;29;20051;-89
2022/01/23 06:06:23;;;;;;;11.00;4.97;;;;;;;;;;4918481;29;20055;-88
2022/01/23 06:08:51;;;;;;;15.98;4.95;;;;;;;;;;4908192;29;20075;-84
2022/01/23 06:11:19;;;;;;;14.82;4.90;;;;;;;;;;4920827;29;20694;-84
2022/01/23 06:13:47;;;;;;;14.95;5.22;;;;;;;;;;4938935;29;20051;-85
2022/01/23 06:16:15;;;;;;;14.27;5.05;;;;;;;;;;4919052;29;20062;-84
2022/01/23 06:18:57;;;;;;;11.30;4.80;;;;;;;;;;4918666;29;20055;-84
2022/01/23 06:21:43;;;;;;;13.95;4.90;;;;;;;;;;4936592;28;20087;-84
2022/01/23 06:24:33;;;;;;;12.90;4.75;;;;;;;;;;4938653;28;20547;-86
2022/01/23 06:27:17;;;;;;;13.38;4.93;;;;;;;;;;4922812;29;20134;-86
2022/01/23 06:29:45;;;;;;;12.85;4.03;;;;;;;;;;4931464;28;20055;-85
2022/01/23 06:32:15;;;;;;;11.98;4.65;;;;;;;;;;4916581;28;20199;-85
2022/01/23 06:34:43;;;;;;;10.98;4.53;;;;;;;;;;4952154;28;20059;-86
2022/01/23 06:37:12;;;;;;;15.48;5.30;;;;;;;;;;4955673;28;20039;-86
2022/01/23 06:39:41;;;;;;;12.15;4.60;;;;;;;;;;4962318;28;20572;-85
2022/01/23 06:42:11;;;;;;;10.73;4.30;;;;;;;;;;5005974;28;20138;-88
2022/01/23 06:44:51;;;;;;;10.55;3.88;;;;;;;;;;4999173;28;20140;-87
2022/01/23 06:47:19;;;;;;;9.43;4.07;;;;;;;;;;4974730;28;20038;-84
2022/01/23 06:49:47;;;;;;;13.13;3.88;;;;;;;;;;4984225;28;20618;-85
2022/01/23 06:52:15;;;;;;;12.68;3.90;;;;;;;;;;5009284;28;20045;-84
2022/01/23 06:54:47;;;;;;;9.70;3.65;;;;;;;;;;4992552;28;20046;-84
2022/01/23 06:57:15;;;;;;;10.20;3.60;;;;;;;;;;4990233;28;20125;-84
2022/01/23 06:59:45;;;;;;;10.23;3.55;;;;;;;;;;5000711;28;20123;-86
2022/01/23 07:02:35;;;;;;;12.98;3.47;;;;;;;;;;4996795;28;20065;-85
2022/01/23 07:05:17;;;;;;;12.85;3.53;;;;;;;;;;4989985;28;20148;-85
2022/01/23 07:08:05;;;;;;;7.93;3.65;;;;;;;;;;4989813;28;20064;-84
2022/01/23 07:10:53;;;;;;;7.03;3.00;;;;;;;;;;4933122;29;20445;-84
2022/01/23 07:13:39;;;;;;;9.75;3.63;;;;;;;;;;4919066;29;20083;-84
2022/01/23 07:16:15;;;;;;;12.13;3.22;;;;;;;;;;4934723;28;20157;-85
2022/01/23 07:19:01;;;;;;;9.52;3.30;;;;;;;;;;4935073;29;20055;-82
2022/01/23 07:21:35;;;;;;;9.90;3.42;;;;;;;;;;4936238;29;20078;-82
2022/01/23 07:24:03;;;;;;;10.00;3.53;;;;;;;;;;4921348;29;20065;-82
2022/01/23 07:26:32;;;;;;;13.20;3.75;;;;;;;;;;4921497;29;20498;-84
2022/01/23 07:29:04;;;;;;;11.95;3.80;;;;;;;;;;4913184;29;20047;-85
2022/01/23 07:34:05;;;;;;;12.73;4.28;;;;;;;;;;4928302;29;20082;-84
2022/01/23 07:36:35;;;;;;;9.32;3.75;;;;;;;;;;4921721;29;20556;-84
2022/01/23 07:39:11;;;;;;;10.13;4.55;;;;;;;;;;4904341;29;20055;-85
2022/01/23 07:41:45;;;;;;;10.82;4.63;;;;;;;;;;4921468;29;20138;-85
2022/01/23 07:44:23;;;;;;;10.30;4.38;;;;;;;;;;4901616;29;20056;-86
2022/01/23 07:47:12;;;;;;;17.83;4.75;;;;;;;;;;4925496;28;20044;-85
2022/01/23 07:50:00;;;;;;;11.05;4.72;;;;;;;;;;4993643;28;20057;-84
2022/01/23 07:52:41;;;;;;;11.02;4.30;;;;;;;;;;4996814;28;20567;-84
2022/01/23 07:55:21;;;;;;;16.40;4.50;;;;;;;;;;4999721;28;20069;-84
2022/01/23 07:58:15;;;;;;;9.15;4.03;;;;;;;;;;4987776;28;20065;-85
2022/01/23 08:01:05;;;;;;;10.48;4.32;;;;;;;;;;4997110;28;20148;-85
2022/01/23 08:03:45;;;;;;;13.40;4.45;;;;;;;;;;4994287;28;20039;-85
2022/01/23 08:06:17;;;;;;;12.13;4.95;;;;;;;;;;4999615;28;20049;-85
2022/01/23 08:08:48;;;;;;;17.23;5.57;;;;;;;;;;5000533;28;20994;-82
2022/01/23 08:11:27;;;;;;;17.42;4.75;;;;;;;;;;4993362;28;20046;-83
2022/01/23 08:13:55;;;;;;;14.90;4.47;;;;;;;;;;4992983;28;20049;-85
2022/01/23 08:16:23;;;;;;;12.30;3.90;;;;;;;;;;4998286;28;20052;-84
2022/01/23 08:18:51;;;;;;;11.95;4.78;;;;;;;;;;4992122;28;20148;-83
2022/01/23 08:21:19;;;;;;;10.40;4.18;;;;;;;;;;4991147;28;20045;-82
2022/01/23 08:23:47;;;;;;;11.15;4.60;;;;;;;;;;4997867;28;20053;-83
2022/01/23 08:26:15;;;;;;;11.70;4.43;;;;;;;;;;4994595;28;20046;-83
2022/01/23 08:28:43;;;;;;;12.40;4.57;;;;;;;;;;4990424;28;20384;-83
2022/01/23 08:31:11;;;;;;;18.50;4.95;;;;;;;;;;4991064;28;20046;-83
2022/01/23 08:33:39;;;;;;;11.88;4.68;;;;;;;;;;4995633;28;20041;-84
2022/01/23 08:36:07;;;;;;;16.10;4.85;;;;;;;;;;4992957;28;20042;-83
2022/01/23 08:38:35;;;;;;;15.35;4.90;;;;;;;;;;4990013;28;20042;-82
2022/01/23 08:43:49;;;;;;;12.82;3.97;;;;;;;;;;4996695;28;20050;-82
2022/01/23 08:46:17;;;;;;;14.88;4.43;;;;;;;;;;4988466;28;20046;-84
2022/01/23 08:48:45;;;;;;;16.85;4.35;;;;;;;;;;4997785;28;20104;-83
2022/01/23 08:51:13;;;;;;;12.02;4.28;;;;;;;;;;4994932;28;20044;-83
2022/01/23 08:53:41;;;;;;;18.42;4.43;;;;;;;;;;4984326;28;20125;-84
2022/01/23 08:56:09;;;;;;;23.02;4.25;;;;;;;;;;4989011;28;20368;-83
2022/01/23 08:58:37;;;;;;;12.85;4.35;;;;;;;;;;4996421;28;20155;-83
2022/01/23 09:01:05;;;;;;;16.00;4.35;;;;;;;;;;4992703;28;20037;-83
2022/01/23 09:03:33;;;;;;;14.98;4.10;;;;;;;;;;4992173;28;20692;-82
2022/01/23 09:06:04;;;;;;;15.27;4.38;;;;;;;;;;4996454;28;20104;-82
2022/01/23 09:08:34;;;;;;;12.50;4.00;;;;;;;;;;4993116;28;20933;-83
2022/01/23 09:11:08;;;;;;;11.43;4.57;;;;;;;;;;4991917;28;20956;-82
2022/01/23 09:16:07;;;;;;;13.40;4.57;;;;;;;;;;4993123;28;20056;-83
2022/01/23 09:18:35;;;;;;;14.48;4.22;;;;;;;;;;4986412;28;20050;-84
2022/01/23 09:21:03;;;;;;;14.90;4.10;;;;;;;;;;4993236;28;20045;-82
2022/01/23 09:23:32;;;;;;;15.43;3.90;;;;;;;;;;4994395;28;20999;-83
2022/01/23 09:26:06;;;;;;;16.65;4.25;;;;;;;;;;4989523;28;20045;-83
2022/01/23 09:28:33;;;;;;;12.20;4.72;;;;;;;;;;4995397;28;20045;-83
2022/01/23 09:31:02;;;;;;;17.52;4.03;;;;;;;;;;4998690;28;20045;-82
2022/01/23 09:33:29;;;;;;;14.00;4.38;;;;;;;;;;4994452;28;20054;-82
2022/01/23 09:35:57;;;;;;;10.45;4.35;;;;;;;;;;4990138;28;20872;-82
2022/01/23 09:38:25;;;;;;;10.05;3.85;;;;;;;;;;4993292;28;20050;-81
2022/01/23 09:40:58;;;;;;;11.20;4.05;;;;;;;;;;4995278;28;20088;-82
2022/01/23 09:43:27;;;;;;;14.15;3.97;;;;;;;;;;4989283;28;20923;-83
2022/01/23 09:45:55;;;;;;;11.82;4.07;;;;;;;;;;4994425;28;20050;-83
2022/01/23 09:48:24;;;;;;;14.00;3.90;;;;;;;;;;4995180;28;20041;-82
2022/01/23 09:50:53;;;;;;;14.02;4.13;;;;;;;;;;4988487;28;20045;-82
2022/01/23 09:53:23;;;;;;;12.23;3.85;;;;;;;;;;5006874;28;20041;-82
2022/01/23 09:55:54;;;;;;;8.40;4.03;;;;;;;;;;4994519;28;20042;-83
2022/01/23 09:58:26;;;;;;;10.23;3.50;;;;;;;;;;4993801;28;20403;-83
2022/01/23 10:00:53;;;;;;;13.30;3.70;;;;;;;;;;4992282;28;20038;-82
2022/01/23 10:03:21;;;;;;;13.10;4.15;;;;;;;;;;4995512;28;20037;-82
2022/01/23 10:05:54;;;;;;;10.85;3.70;;;;;;;;;;4993544;28;20041;-83
2022/01/23 10:08:23;;;;;;;10.82;3.45;;;;;;;;;;4987605;28;20038;-83
2022/01/23 10:10:52;;;;;;;14.30;3.83;;;;;;;;;;4993239;28;20104;-83
2022/01/23 10:13:25;;;;;;;14.65;4.43;;;;;;;;;;4990220;28;20114;-84
2022/01/23 10:15:53;;;;;;;12.77;4.30;;;;;;;;;;4988880;28;20079;-84
2022/01/23 10:18:22;;;;;;;14.55;4.28;;;;;;;;;;4990290;28;20046;-83
2022/01/23 10:20:49;;;;;;;11.20;4.65;;;;;;;;;;4992104;28;20180;-82
2022/01/23 10:23:18;;;;;;;19.55;4.43;;;;;;;;;;4989390;28;20161;-82
2022/01/23 10:25:47;;;;;;;12.38;4.00;;;;;;;;;;4987802;28;20087;-81
2022/01/23 10:28:19;;;;;;;19.63;4.60;;;;;;;;;;4991553;28;20064;-81
2022/01/23 10:30:57;;;;;;;11.10;4.15;;;;;;;;;;4990121;28;20045;-81
2022/01/23 10:33:27;;;;;;;12.15;4.50;;;;;;;;;;4989367;28;20080;-81
2022/01/23 10:36:04;;;;;;;11.38;4.00;;;;;;;;;;4991036;28;20034;-82
2022/01/23 10:38:36;;;;;;;12.85;4.28;;;;;;;;;;4995385;28;20049;-81
2022/01/23 10:41:26;;;;;;;16.17;3.95;;;;;;;;;;4989522;28;20069;-82
2022/01/23 10:50:21;;;;;;;15.88;4.50;;;;;;;;;;4994210;28;20097;-81
2022/01/23 10:52:51;;;;;;;17.30;4.78;;;;;;;;;;4995669;28;20045;-81
2022/01/23 10:55:33;;;;;;;15.25;4.38;;;;;;;;;;4995444;28;20034;-81
2022/01/23 10:58:06;;;;;;;14.75;4.68;;;;;;;;;;4988496;28;20081;-81
2022/01/23 11:00:37;;;;;;;15.63;5.25;;;;;;;;;;4993203;28;20057;-82
2022/01/23 11:03:22;;;;;;;22.02;5.82;;;;;;;;;;5010078;28;20049;-81
2022/01/23 11:05:51;;;;;;;20.60;5.22;;;;;;;;;;4993674;28;20030;-82
2022/01/23 11:08:27;;;;;;;24.88;6.25;;;;;;;;;;4993365;28;20125;-81
2022/01/23 11:10:57;;;;;;;21.05;6.40;;;;;;;;;;4995050;28;20691;-82
2022/01/23 11:19:30;;;;;;;27.63;7.85;;;;;;;;;;4992881;28;20051;-82
2022/01/23 11:21:59;;;;;;;25.45;8.20;;;;;;;;;;4989238;28;20038;-81
2022/01/23 11:24:36;;;;;;;26.60;8.68;;;;;;;;;;4984405;28;20171;-81
2022/01/23 11:27:04;;;;;;;20.70;7.78;;;;;;;;;;4989197;28;20860;-81
2022/01/23 11:29:32;;;;;;;24.25;8.07;;;;;;;;;;4991564;28;20037;-81
2022/01/23 11:31:59;;;;;;;25.55;7.72;;;;;;;;;;4986506;28;20093;-82
2022/01/23 11:34:29;;;;;;;20.60;7.50;;;;;;;;;;4985478;28;20547;-82
2022/01/23 11:36:57;;;;;;;21.38;8.23;;;;;;;;;;4996433;28;20042;-80
2022/01/23 11:39:43;;;;;;;26.27;7.32;;;;;;;;;;4989826;28;20859;-80
2022/01/23 11:50:45;;;;;;;17.23;7.22;;;;;;;;;;4996285;28;20141;-80
2022/01/23 11:56:24;;;;;;;12.57;5.90;;;;;;;;;;4994067;28;20066;-80
2022/01/23 11:58:53;;;;;;;16.25;5.93;;;;;;;;;;4991884;28;20048;-80
2022/01/23 12:01:26;;;;;;;17.27;5.30;;;;;;;;;;4997088;28;20046;-81
2022/01/23 12:04:09;;;;;;;14.80;5.25;;;;;;;;;;4991767;28;20038;-80
2022/01/23 12:06:40;;;;;;;11.27;5.15;;;;;;;;;;4989095;28;20169;-80
2022/01/23 12:09:16;;;;;;;16.02;5.43;;;;;;;;;;4995219;28;20640;-80
2022/01/23 12:12:08;;;;;;;14.35;4.70;;;;;;;;;;5003192;28;20042;-80
2022/01/23 12:17:10;;;;;;;11.18;3.78;;;;;;;;;;5021091;28;20076;-80
2022/01/23 12:19:48;;;;;;;9.55;3.15;;;;;;;;;;4999658;28;20045;-80
2022/01/23 12:22:36;;;;;;;13.80;3.30;;;;;;;;;;4997295;28;20042;-80
2022/01/23 12:25:11;;;;;;;10.50;2.53;;;;;;;;;;4999939;28;20080;-80
2022/01/23 12:27:40;;;;;;;11.35;2.38;;;;;;;;;;4998042;28;20038;-80
2022/01/23 12:30:33;;;;;;;7.68;2.60;;;;;;;;;;5003424;28;20050;-80
2022/01/23 12:33:20;;;;;;;12.00;2.35;;;;;;;;;;4996521;28;20059;-80
2022/01/23 12:35:51;;;;;;;9.13;2.20;;;;;;;;;;4998053;28;20042;-80
2022/01/23 12:38:28;;;;;;;8.43;1.95;;;;;;;;;;4997389;28;20054;-80
2022/01/23 12:41:14;;;;;;;6.20;1.90;;;;;;;;;;4998753;28;20061;-80
2022/01/23 12:43:42;;;;;;;7.85;2.20;;;;;;;;;;4991764;28;20045;-80
2022/01/23 12:46:11;;;;;;;5.68;1.70;;;;;;;;;;5003295;28;20105;-84
2022/01/23 12:48:41;;;;;;;4.45;1.50;;;;;;;;;;5002629;28;20096;-80
2022/01/23 12:51:12;;;;;;;10.82;1.90;;;;;;;;;;4997714;28;20120;-80
2022/01/23 12:53:47;;;;;;;6.65;2.20;;;;;;;;;;4994151;28;20481;-80
2022/01/23 12:56:23;;;;;;;9.45;1.63;;;;;;;;;;4997765;28;20675;-80
2022/01/23 12:58:54;;;;;;;10.00;1.55;;;;;;;;;;4997304;28;20044;-80
2022/01/23 13:01:26;;;;;;;3.40;1.13;;;;;;;;;;4996899;28;20064;-81
2022/01/23 13:03:58;;;;;;;7.47;1.73;;;;;;;;;;5000367;28;20181;-83
2022/01/23 13:06:33;;;;;;;7.93;1.30;;;;;;;;;;4997510;28;20128;-80
2022/01/23 13:09:30;;;;;;;5.65;1.40;;;;;;;;;;5000111;28;20044;-80
2022/01/23 13:15:13;;;;;;;5.80;1.50;;;;;;;;;;4998689;28;20408;-81
2022/01/23 13:29:27;;;;;;;3.70;1.00;;;;;;;;;;4987433;28;20392;-79
2022/01/23 13:31:37;;;;;;;3.80;0.95;;;;;;;;;;4991481;28;20062;-78
2022/01/23 13:34:39;;;;;;;3.17;0.73;;;;;;;;;;4989236;28;20115;-79
2022/01/23 13:37:13;;;;;;;7.53;1.10;;;;;;;;;;4991220;28;20041;-81
2022/01/23 13:39:59;;;;;;;2.58;1.15;;;;;;;;;;4993850;28;20049;-81
2022/01/23 13:48:41;;;;;;;4.68;1.50;;;;;;;;;;4994791;28;20057;-80
2022/01/23 13:59:51;;;;;;;11.48;5.68;;;;;;;;;;4995573;28;20612;-80
2022/01/23 14:02:34;;;;;;;6.13;3.70;;;;;;;;;;4993358;28;20062;-80
2022/01/23 14:05:27;;;;;;;11.80;5.45;;;;;;;;;;4995281;28;20045;-80
2022/01/23 14:07:58;;;;;;;6.65;4.00;;;;;;;;;;5013186;28;20117;-81
2022/01/23 14:10:34;;;;;;;5.03;2.85;;;;;;;;;;4992300;28;20096;-79
2022/01/23 14:13:14;;;;;;;6.95;2.85;;;;;;;;;;4992140;28;20076;-79
2022/01/23 14:15:50;;;;;;;6.53;2.35;;;;;;;;;;4989880;28;20165;-79
2022/01/23 14:18:24;;;;;;;5.35;2.22;;;;;;;;;;4992297;28;20045;-79
2022/01/23 14:21:03;;;;;;;6.15;2.97;;;;;;;;;;4992975;28;20049;-79
2022/01/23 14:23:34;;;;;;;3.97;2.03;;;;;;;;;;4993151;28;20700;-79
2022/01/23 14:26:07;;;;;;;4.45;2.60;;;;;;;;;;4990203;28;20053;-79
2022/01/23 14:28:44;;;;;;;4.90;2.03;;;;;;;;;;4992337;28;20041;-79
2022/01/23 14:31:17;;;;;;;4.63;2.15;;;;;;;;;;4993801;28;20408;-79
2022/01/23 14:33:49;;;;;;;6.68;2.17;;;;;;;;;;4992766;28;20049;-79
2022/01/23 14:36:37;;;;;;;6.75;1.95;;;;;;;;;;4988997;28;20135;-79
2022/01/23 14:39:11;;;;;;;3.15;1.40;;;;;;;;;;4992645;28;20686;-79
2022/01/23 14:41:42;;;;;;;7.75;1.80;;;;;;;;;;4993151;28;20052;-79
2022/01/23 14:44:24;;;;;;;4.32;1.65;;;;;;;;;;4993384;28;20054;-79
2022/01/23 14:46:55;;;;;;;6.15;2.30;;;;;;;;;;4992362;28;20053;-79
2022/01/23 14:49:26;;;;;;;6.72;1.80;;;;;;;;;;4992401;28;20859;-79
2022/01/23 14:51:58;;;;;;;5.10;1.50;;;;;;;;;;4990695;28;20421;-79
2022/01/23 14:54:29;;;;;;;7.30;2.13;;;;;;;;;;4995061;28;20356;-79
2022/01/23 14:57:06;;;;;;;5.18;1.83;;;;;;;;;;5006045;28;20054;-79
2022/01/23 14:59:35;;;;;;;6.40;1.90;;;;;;;;;;4992495;28;20874;-79
2022/01/23 15:02:05;;;;;;;4.47;1.60;;;;;;;;;;4993295;28;20042;-79
2022/01/23 15:04:44;;;;;;;5.07;2.33;;;;;;;;;;4993648;28;20046;-79
2022/01/23 15:07:16;;;;;;;6.80;2.00;;;;;;;;;;4992618;28;20048;-79
2022/01/23 15:09:46;;;;;;;9.48;2.42;;;;;;;;;;4994042;28;21029;-79
2022/01/23 15:12:14;;;;;;;9.73;2.33;;;;;;;;;;4992730;28;20264;-79
2022/01/23 15:14:42;;;;;;;8.32;2.20;;;;;;;;;;4991707;28;20037;-79
2022/01/23 15:17:10;;;;;;;6.22;1.58;;;;;;;;;;4988448;28;20120;-79
2022/01/23 15:19:37;;;;;;;4.70;1.40;;;;;;;;;;4994285;28;20407;-79
2022/01/23 15:22:05;;;;;;;3.40;1.77;;;;;;;;;;4998359;28;20049;-79
2022/01/23 15:24:33;;;;;;;3.03;1.70;;;;;;;;;;4995979;28;20037;-79
2022/01/23 15:27:01;;;;;;;6.75;1.92;;;;;;;;;;4996697;28;20615;-79
2022/01/23 15:29:29;;;;;;;10.55;1.40;;;;;;;;;;4996904;28;20037;-79
2022/01/23 15:31:58;;;;;;;7.38;1.33;;;;;;;;;;5010263;28;20105;-79
2022/01/23 15:34:27;;;;;;;4.40;1.50;;;;;;;;;;4992800;28;20041;-80
2022/01/23 15:36:53;;;;;;;4.57;1.50;;;;;;;;;;4992229;28;20465;-80
2022/01/23 15:39:24;;;;;;;5.25;1.63;;;;;;;;;;4992737;28;20030;-79
2022/01/23 15:41:51;;;;;;;5.80;1.80;;;;;;;;;;4991268;28;20033;-80
2022/01/23 15:44:19;;;;;;;3.38;1.42;;;;;;;;;;4997636;28;20088;-79
2022/01/23 15:46:47;;;;;;;6.63;1.58;;;;;;;;;;4997994;28;20056;-79
2022/01/23 15:49:15;;;;;;;6.85;1.75;;;;;;;;;;4997363;28;20033;-80
2022/01/23 15:51:47;;;;;;;3.20;1.35;;;;;;;;;;4993818;28;20061;-80
2022/01/23 15:54:18;;;;;;;4.00;1.50;;;;;;;;;;4994425;28;20096;-80
2022/01/23 15:56:47;;;;;;;8.30;2.78;;;;;;;;;;4998176;28;20042;-80
2022/01/23 15:59:17;;;;;;;7.13;2.28;;;;;;;;;;4997290;28;20038;-80
2022/01/23 16:01:49;;;;;;;6.07;2.30;;;;;;;;;;4992940;28;20144;-80
2022/01/23 16:04:19;;;;;;;3.50;1.90;;;;;;;;;;4996758;28;20099;-80
2022/01/23 16:06:48;;;;;;;5.93;1.70;;;;;;;;;;5001663;28;20038;-80
2022/01/23 16:09:15;;;;;;;8.77;2.13;;;;;;;;;;4998387;28;20038;-80
2022/01/23 16:11:43;;;;;;;6.25;2.55;;;;;;;;;;4998538;28;21326;-79
2022/01/23 16:14:11;;;;;;;8.57;2.25;;;;;;;;;;5009507;28;20041;-79
2022/01/23 16:16:39;;;;;;;6.72;2.17;;;;;;;;;;4997383;28;20121;-79
2022/01/23 16:19:07;;;;;;;6.28;2.58;;;;;;;;;;4997459;28;20052;-80
2022/01/23 16:21:36;;;;;;;7.47;2.90;;;;;;;;;;4993815;28;20128;-79
2022/01/23 16:24:04;;;;;;;5.22;1.90;;;;;;;;;;4992585;28;20160;-79
2022/01/23 16:26:37;;;;;;;5.18;2.90;;;;;;;;;;4993897;28;20049;-79
2022/01/23 16:29:05;;;;;;;6.18;2.30;;;;;;;;;;4993900;28;20042;-79
2022/01/23 16:31:33;;;;;;;6.45;2.58;;;;;;;;;;4991587;28;21000;-79
2022/01/23 16:34:02;;;;;;;5.40;2.75;;;;;;;;;;4993040;28;20042;-79
2022/01/23 16:36:32;;;;;;;6.53;2.70;;;;;;;;;;4992973;28;20132;-78
2022/01/23 16:38:59;;;;;;;5.63;2.40;;;;;;;;;;4989006;28;20042;-79
2022/01/23 16:41:27;;;;;;;3.80;2.20;;;;;;;;;;4992592;28;20053;-79
2022/01/23 16:43:55;;;;;;;6.38;2.70;;;;;;;;;;4992021;28;20468;-79
2022/01/23 16:46:23;;;;;;;6.03;2.72;;;;;;;;;;4986993;28;20064;-79
2022/01/23 16:48:51;;;;;;;4.40;2.50;;;;;;;;;;4989083;28;20042;-79
2022/01/23 16:51:19;;;;;;;6.22;1.80;;;;;;;;;;4993565;28;20046;-79
2022/01/23 16:53:47;;;;;;;4.00;1.65;;;;;;;;;;4993127;28;20139;-79
2022/01/23 16:56:17;;;;;;;5.35;2.20;;;;;;;;;;4987442;28;20050;-79
2022/01/23 16:58:45;;;;;;;6.78;1.55;;;;;;;;;;4992328;28;20034;-79
2022/01/23 17:01:18;;;;;;;4.25;1.50;;;;;;;;;;4992039;28;20050;-78
2022/01/23 17:03:45;;;;;;;3.28;1.60;;;;;;;;;;4989746;28;20510;-79
2022/01/23 17:06:14;;;;;;;6.32;1.70;;;;;;;;;;4991666;28;20053;-79
2022/01/23 17:08:41;;;;;;;3.65;1.77;;;;;;;;;;4997425;28;20042;-79
2022/01/23 17:11:09;;;;;;;4.35;1.88;;;;;;;;;;5006103;28;20056;-80
2022/01/23 17:13:37;;;;;;;2.85;1.42;;;;;;;;;;4994016;28;20042;-80
2022/01/23 17:16:06;;;;;;;3.63;1.30;;;;;;;;;;4996184;28;20053;-79
2022/01/23 17:18:33;;;;;;;4.60;1.55;;;;;;;;;;4997176;28;20046;-79
2022/01/23 17:21:02;;;;;;;3.58;1.40;;;;;;;;;;5006691;28;20128;-79
2022/01/23 17:23:31;;;;;;;7.45;1.70;;;;;;;;;;4989157;28;20045;-79
2022/01/23 17:26:00;;;;;;;3.70;1.48;;;;;;;;;;4989436;28;20041;-79
2022/01/23 17:28:27;;;;;;;2.85;1.20;;;;;;;;;;4984768;28;20104;-80
2022/01/23 17:30:55;;;;;;;3.08;1.20;;;;;;;;;;4993190;28;20127;-80
2022/01/23 17:33:23;;;;;;;2.55;1.10;;;;;;;;;;4991819;28;21263;-80
2022/01/23 17:35:52;;;;;;;5.43;1.17;;;;;;;;;;4987532;28;20046;-80
2022/01/23 17:38:19;;;;;;;4.70;1.33;;;;;;;;;;4987607;28;20101;-79
2022/01/23 17:40:47;;;;;;;3.40;1.60;;;;;;;;;;4990880;28;20388;-80
2022/01/23 17:43:15;;;;;;;3.63;1.60;;;;;;;;;;4988581;28;20038;-79
2022/01/23 17:45:52;;;;;;;4.47;1.55;;;;;;;;;;4985127;28;20052;-80
2022/01/23 17:51:24;;;;;;;3.55;1.90;;;;;;;;;;4971205;28;20058;-80
2022/01/23 17:53:53;;;;;;;4.15;1.67;;;;;;;;;;4952430;28;20120;-80
2022/01/23 17:56:20;;;;;;;4.10;1.65;;;;;;;;;;4961289;28;20046;-79
2022/01/23 17:58:49;;;;;;;4.97;1.95;;;;;;;;;;4955720;28;20046;-80
2022/01/23 18:01:18;;;;;;;5.93;1.95;;;;;;;;;;4965627;28;20061;-78
2022/01/23 18:03:46;;;;;;;9.40;1.80;;;;;;;;;;4970838;28;20117;-79
2022/01/23 18:06:32;;;;;;;8.13;1.92;;;;;;;;;;4972628;28;20086;-79
2022/01/23 18:09:00;;;;;;;9.82;2.00;;;;;;;;;;4952732;28;20046;-79
2022/01/23 18:11:27;;;;;;;9.60;2.05;;;;;;;;;;4967185;28;20069;-79
2022/01/23 18:13:58;;;;;;;3.97;1.90;;;;;;;;;;4976107;28;20062;-86
2022/01/23 18:16:29;;;;;;;6.25;2.15;;;;;;;;;;4981505;28;20050;-87
2022/01/23 18:18:57;;;;;;;5.07;2.25;;;;;;;;;;4974361;28;20109;-86
2022/01/23 18:21:44;;;;;;;4.38;2.03;;;;;;;;;;4965910;28;20472;-85
2022/01/23 18:24:12;;;;;;;6.00;2.20;;;;;;;;;;4975408;28;20042;-84
2022/01/23 18:26:42;;;;;;;5.90;2.00;;;;;;;;;;4975287;28;20164;-85